Santiago Compost, Spain
Current Conditions -  °F | °C
As of 7:00 PM on Tuesday 21 Oct 2014 (Local Time) from LEST Reporting Station
Clear Clear  
Wind Chill: 66°   Ceiling: Unl
Heat Index: 66°   Visibility: 6mi
Dew Point: 61°   Wind: 1mph
Humidity: 83%   Direction: NA
Pressure: 30.39"   Gusts: NA
Location:  42.9°N, 8.43°W
Report Text: LEST 211700Z VRB01KT CAVOK 19/16 Q1029 NOSIG
Loading
Personal Weather Stations






























Interactive Weather Map
Tropical Storm Tracking
New forecast layout! Learn more

10-Day Weather Forecast

Advertisements
Track Severe Weather on mobile